createdAt,value
2018-06-03T00:02:25.148Z,17.63
2018-06-03T00:04:57.095Z,16.33
2018-06-03T00:07:29.018Z,16.47
2018-06-03T00:10:00.328Z,16.87
2018-06-03T00:12:32.238Z,16.00
2018-06-03T00:15:03.418Z,15.63
2018-06-03T00:17:34.525Z,16.37
2018-06-03T00:20:06.936Z,16.50
2018-06-03T00:22:38.067Z,15.10
2018-06-03T00:25:09.543Z,15.37
2018-06-03T00:27:40.995Z,15.73
2018-06-03T00:30:13.212Z,15.43
2018-06-03T00:32:44.707Z,19.00
2018-06-03T00:35:16.094Z,18.90
2018-06-03T00:37:47.537Z,20.60
2018-06-03T00:40:18.939Z,20.80
2018-06-03T00:42:50.514Z,21.47
2018-06-03T00:45:21.923Z,22.40
2018-06-03T00:47:53.350Z,22.83
2018-06-03T00:50:25.551Z,21.33
2018-06-03T00:52:57.049Z,22.87
2018-06-03T00:55:28.470Z,25.30
2018-06-03T00:57:59.914Z,23.27
2018-06-03T01:01:15.914Z,24.90
2018-06-03T01:03:48.106Z,23.67
2018-06-03T01:06:19.607Z,23.10
2018-06-03T01:08:51.904Z,20.60
2018-06-03T01:11:23.401Z,19.53
2018-06-03T01:13:54.933Z,17.93
2018-06-03T01:16:26.594Z,18.23
2018-06-03T01:18:58.093Z,15.10
2018-06-03T01:21:29.624Z,13.40
2018-06-03T01:24:00.992Z,14.03
2018-06-03T01:26:32.981Z,18.03
2018-06-03T01:29:04.745Z,15.23
2018-06-03T01:31:36.406Z,18.97
2018-06-03T01:34:07.937Z,18.07
2018-06-03T01:36:39.877Z,17.30
2018-06-03T01:39:12.024Z,16.50
2018-06-03T01:41:43.674Z,16.83
2018-06-03T01:44:15.133Z,17.97
2018-06-03T01:46:46.649Z,17.43
2018-06-03T01:49:18.135Z,17.63
2018-06-03T01:51:49.899Z,16.10
2018-06-03T01:54:21.398Z,15.83
2018-06-03T01:56:52.923Z,15.83
2018-06-03T01:59:24.389Z,15.63
2018-06-03T02:01:56.157Z,15.70
2018-06-03T02:04:27.647Z,16.10
2018-06-03T02:06:59.097Z,15.87
2018-06-03T02:09:30.613Z,14.43
2018-06-03T02:12:02.052Z,15.17
2018-06-03T02:14:33.543Z,16.97
2018-06-03T02:17:05.092Z,16.33
2018-06-03T02:19:36.562Z,16.27
2018-06-03T02:22:08.484Z,15.70
2018-06-03T02:24:40.151Z,16.30
2018-06-03T02:27:11.683Z,16.60
2018-06-03T02:29:43.271Z,16.40
2018-06-03T02:32:14.856Z,16.13
2018-06-03T02:34:46.521Z,15.60
2018-06-03T02:37:18.019Z,15.90
2018-06-03T02:39:49.798Z,17.10
2018-06-03T02:42:21.452Z,16.77
2018-06-03T02:44:53.071Z,17.70
2018-06-03T02:47:24.819Z,16.67
2018-06-03T02:49:56.532Z,18.47
2018-06-03T02:52:27.997Z,23.07
2018-06-03T02:54:59.895Z,18.50
2018-06-03T02:57:30.829Z,19.27
2018-06-03T03:00:02.070Z,19.67
2018-06-03T03:02:33.551Z,16.93
2018-06-03T03:05:06.428Z,17.77
2018-06-03T03:07:37.942Z,15.97
2018-06-03T03:10:09.517Z,15.80
2018-06-03T03:12:41.075Z,14.37
2018-06-03T03:15:12.719Z,14.60
2018-06-03T03:17:43.981Z,16.63
2018-06-03T03:20:15.255Z,15.50
2018-06-03T03:22:46.769Z,17.33
2018-06-03T03:25:18.294Z,18.53
2018-06-03T03:27:49.770Z,18.07
2018-06-03T03:30:21.489Z,17.20
2018-06-03T03:32:53.046Z,17.67
2018-06-03T03:35:24.801Z,20.37
2018-06-03T03:37:55.963Z,20.47
2018-06-03T03:40:28.142Z,21.23
2018-06-03T03:42:59.693Z,19.57
2018-06-03T03:45:31.318Z,18.60
2018-06-03T03:48:03.190Z,20.37
2018-06-03T03:50:34.626Z,20.97
2018-06-03T03:53:07.078Z,19.37
2018-06-03T03:55:38.418Z,22.27
2018-06-03T03:58:09.898Z,22.30
2018-06-03T04:00:41.919Z,22.10
2018-06-03T04:03:13.414Z,22.83
2018-06-03T04:05:44.903Z,24.10
2018-06-03T04:08:16.546Z,21.77
2018-06-03T04:10:48.115Z,21.77
2018-06-03T04:13:19.640Z,21.77
2018-06-03T04:15:51.550Z,16.90
2018-06-03T04:18:23.435Z,18.73
2018-06-03T04:20:55.034Z,16.00
2018-06-03T04:23:26.691Z,17.77
2018-06-03T04:25:57.875Z,17.87
2018-06-03T04:28:29.206Z,17.43
2018-06-03T04:31:00.793Z,19.27
2018-06-03T04:33:32.392Z,21.07
2018-06-03T04:36:03.977Z,19.67
2018-06-03T04:38:35.685Z,17.27
2018-06-03T04:41:13.965Z,15.87
2018-06-03T04:43:45.493Z,16.57
2018-06-03T04:46:17.042Z,18.33
2018-06-03T04:48:48.578Z,19.60
2018-06-03T04:51:20.353Z,18.50
2018-06-03T04:53:52.064Z,20.23
2018-06-03T04:56:23.674Z,20.27
2018-06-03T04:58:55.282Z,20.43
2018-06-03T05:01:26.874Z,18.57
2018-06-03T05:03:58.469Z,17.40
2018-06-03T05:06:29.899Z,15.37
2018-06-03T05:09:01.596Z,17.80
2018-06-03T05:11:33.143Z,16.30
2018-06-03T05:14:05.849Z,16.33
2018-06-03T05:16:37.638Z,18.60
2018-06-03T05:19:09.621Z,16.50
2018-06-03T05:21:41.197Z,20.27
2018-06-03T05:24:12.806Z,20.10
2018-06-03T05:26:44.283Z,19.83
2018-06-03T05:29:15.711Z,17.90
2018-06-03T05:31:47.174Z,17.23
2018-06-03T05:34:18.069Z,18.17
2018-06-03T05:36:49.302Z,19.07
2018-06-03T05:39:20.804Z,21.30
2018-06-03T05:41:52.334Z,22.60
2018-06-03T05:44:25.090Z,24.23
2018-06-03T05:46:56.612Z,25.80
2018-06-03T05:49:28.202Z,27.77
2018-06-03T05:51:59.738Z,29.57
2018-06-03T05:54:31.205Z,28.20
2018-06-03T05:57:02.711Z,28.77
2018-06-03T05:59:34.378Z,29.83
2018-06-03T06:02:06.205Z,29.13
2018-06-03T06:04:37.658Z,30.17
2018-06-03T06:07:09.125Z,30.53
2018-06-03T06:09:40.563Z,29.60
2018-06-03T06:12:12.059Z,34.90
2018-06-03T06:14:43.525Z,30.33
2018-06-03T06:17:15.732Z,35.20
2018-06-03T06:19:47.259Z,29.60
2018-06-03T06:22:18.932Z,34.90
2018-06-03T06:24:50.408Z,31.17
2018-06-03T06:27:21.909Z,29.70
2018-06-03T06:29:53.433Z,28.70
2018-06-03T06:32:24.997Z,30.70
2018-06-03T06:34:56.476Z,36.03
2018-06-03T06:37:27.972Z,31.37
2018-06-03T06:39:59.819Z,35.20
2018-06-03T06:42:31.250Z,31.23
2018-06-03T06:45:02.839Z,31.87
2018-06-03T06:47:34.298Z,32.50
2018-06-03T06:50:05.943Z,35.53
2018-06-03T06:52:37.615Z,35.47
2018-06-03T06:55:08.830Z,33.73
2018-06-03T06:57:40.091Z,33.93
2018-06-03T07:00:11.754Z,35.80
2018-06-03T07:02:43.533Z,34.43
2018-06-03T07:05:15.416Z,32.90
2018-06-03T07:07:46.926Z,37.97
2018-06-03T07:10:18.538Z,40.73
2018-06-03T07:12:50.303Z,36.83
2018-06-03T07:15:21.837Z,38.10
2018-06-03T07:17:53.337Z,38.93
2018-06-03T07:20:24.979Z,39.30
2018-06-03T07:22:56.626Z,34.60
2018-06-03T07:25:28.154Z,40.60
2018-06-03T07:27:59.662Z,36.70
2018-06-03T07:30:31.119Z,33.77
2018-06-03T07:33:02.679Z,35.40
2018-06-03T07:35:34.503Z,38.20
2018-06-03T07:38:06.212Z,37.07
2018-06-03T07:40:38.008Z,35.77
2018-06-03T07:43:09.663Z,35.60
2018-06-03T07:45:41.171Z,37.97
2018-06-03T07:48:12.635Z,39.97
2018-06-03T07:50:43.797Z,36.30
2018-06-03T07:53:15.035Z,37.43
2018-06-03T07:55:46.595Z,35.33
2018-06-03T07:58:18.451Z,38.37
2018-06-03T08:00:50.003Z,41.00
2018-06-03T08:03:21.135Z,35.90
2018-06-03T08:05:52.438Z,35.00
2018-06-03T08:08:24.223Z,37.03
2018-06-03T08:10:56.152Z,35.23
2018-06-03T08:13:28.151Z,38.53
2018-06-03T08:15:59.701Z,38.07
2018-06-03T08:18:31.259Z,41.00
2018-06-03T08:21:02.823Z,34.57
2018-06-03T08:23:34.347Z,36.40
2018-06-03T08:26:06.119Z,36.00
2018-06-03T08:28:37.831Z,40.47
2018-06-03T08:31:09.192Z,37.30
2018-06-03T08:33:40.598Z,36.13
2018-06-03T08:36:12.135Z,40.07
2018-06-03T08:38:43.919Z,34.03
2018-06-03T08:41:15.566Z,37.97
2018-06-03T08:43:47.117Z,37.60
2018-06-03T08:46:18.693Z,42.53
2018-06-03T08:48:50.338Z,38.53
2018-06-03T08:51:22.249Z,38.47
2018-06-03T08:53:53.903Z,39.10
2018-06-03T08:56:25.908Z,37.63
2018-06-03T08:58:57.862Z,35.60
2018-06-03T09:01:29.541Z,35.77
2018-06-03T09:04:01.098Z,41.60
2018-06-03T09:06:32.724Z,39.00
2018-06-03T09:09:05.552Z,40.57
2018-06-03T09:11:37.210Z,41.10
2018-06-03T09:14:08.465Z,39.07
2018-06-03T09:16:39.781Z,37.90
2018-06-03T09:19:11.356Z,40.83
2018-06-03T09:21:42.855Z,40.27
2018-06-03T09:24:15.093Z,38.97
2018-06-03T09:26:47.079Z,37.30
2018-06-03T09:29:18.598Z,36.63
2018-06-03T09:31:50.523Z,34.23
2018-06-03T09:34:22.170Z,35.83
2018-06-03T09:36:54.011Z,33.90
2018-06-03T09:39:25.779Z,29.90
2018-06-03T09:41:57.440Z,32.33
2018-06-03T09:44:29.337Z,35.20
2018-06-03T09:47:01.249Z,31.70
2018-06-03T09:49:33.090Z,33.83
2018-06-03T09:52:04.330Z,34.90
2018-06-03T09:54:35.995Z,33.90
2018-06-03T09:57:07.576Z,33.80
2018-06-03T09:59:39.912Z,31.67
2018-06-03T10:02:11.857Z,32.63
2018-06-03T10:04:44.730Z,34.67
2018-06-03T10:07:16.351Z,33.60
2018-06-03T10:09:47.953Z,33.80
2018-06-03T10:12:19.405Z,31.63
2018-06-03T10:14:57.603Z,31.83
2018-06-03T10:17:29.325Z,30.33
2018-06-03T10:20:01.250Z,31.53
2018-06-03T10:22:32.935Z,34.50
2018-06-03T10:25:04.966Z,33.50
2018-06-03T10:27:36.768Z,33.33
2018-06-03T10:30:08.415Z,34.83
2018-06-03T10:32:39.996Z,33.13
2018-06-03T10:35:11.642Z,38.97
2018-06-03T10:37:43.870Z,32.40
2018-06-03T10:40:15.563Z,32.60
2018-06-03T10:42:47.247Z,34.00
2018-06-03T10:45:19.002Z,33.30
2018-06-03T10:47:57.210Z,34.80
2018-06-03T10:50:28.790Z,33.13
2018-06-03T10:53:01.068Z,32.43
2018-06-03T10:55:32.761Z,31.77
2018-06-03T10:58:05.028Z,32.17
2018-06-03T11:00:37.682Z,28.52
2018-06-03T11:03:09.785Z,30.12
2018-06-03T11:05:42.235Z,30.77
2018-06-03T11:08:14.366Z,30.05
2018-06-03T11:10:46.556Z,27.30
2018-06-03T11:13:18.687Z,29.27
2018-06-03T11:15:51.463Z,28.12
2018-06-03T11:18:23.533Z,32.28
2018-06-03T11:20:55.777Z,30.35
2018-06-03T11:23:28.198Z,30.75
2018-06-03T11:26:00.356Z,27.80
2018-06-03T11:28:32.291Z,28.52
2018-06-03T11:31:04.443Z,30.27
2018-06-03T11:33:37.257Z,29.70
2018-06-03T11:36:09.475Z,27.50
2018-06-03T11:38:41.617Z,28.65
2018-06-03T11:41:13.718Z,29.37
2018-06-03T11:43:45.735Z,27.22
2018-06-03T11:46:17.590Z,26.85
2018-06-03T11:48:49.737Z,27.07
2018-06-03T11:51:22.187Z,26.05
2018-06-03T11:53:54.245Z,28.65
2018-06-03T11:56:42.342Z,28.30
2018-06-03T11:59:45.552Z,28.00
2018-06-03T12:02:19.083Z,25.88
2018-06-03T12:04:51.117Z,27.30
2018-06-03T12:07:23.315Z,25.45
2018-06-03T12:09:55.950Z,23.47
2018-06-03T12:12:28.109Z,23.55
2018-06-03T12:15:00.555Z,23.35
2018-06-03T12:17:34.124Z,26.68
2018-06-03T12:20:07.148Z,25.92
2018-06-03T12:22:38.923Z,24.20
2018-06-03T12:25:11.631Z,23.55
2018-06-03T12:27:44.166Z,24.10
2018-06-03T12:30:16.400Z,24.70
2018-06-03T12:32:48.827Z,25.52
2018-06-03T12:35:23.072Z,24.07
2018-06-03T12:37:55.875Z,21.85
2018-06-03T12:40:28.310Z,21.02
2018-06-03T12:43:00.767Z,21.60
2018-06-03T12:45:32.981Z,21.33
2018-06-03T12:48:06.439Z,21.55
2018-06-03T12:50:38.679Z,22.62
2018-06-03T12:53:11.069Z,23.80
2018-06-03T12:55:43.355Z,23.18
2018-06-03T12:58:15.742Z,23.02
2018-06-03T13:00:48.272Z,22.27
2018-06-03T13:03:20.768Z,22.67
2018-06-03T13:05:52.890Z,24.18
2018-06-03T13:08:25.038Z,25.80
2018-06-03T13:10:57.018Z,27.30
2018-06-03T13:13:29.292Z,24.43
2018-06-03T13:16:01.520Z,23.73
2018-06-03T13:18:33.614Z,24.18
2018-06-03T13:21:05.684Z,25.40
2018-06-03T13:23:38.281Z,26.40
2018-06-03T13:26:10.566Z,25.92
2018-06-03T13:28:42.854Z,26.87
2018-06-03T13:31:14.966Z,23.67
2018-06-03T13:33:47.080Z,23.20
2018-06-03T13:36:19.253Z,20.37
2018-06-03T13:38:51.337Z,18.57
2018-06-03T13:41:30.710Z,17.05
2018-06-03T13:44:02.831Z,16.48
2018-06-03T13:46:34.954Z,16.87
2018-06-03T13:49:07.084Z,18.45
2018-06-03T13:51:39.426Z,18.25
2018-06-03T13:54:12.070Z,18.62
2018-06-03T13:56:44.269Z,19.27
2018-06-03T13:59:16.805Z,17.07
2018-06-03T14:01:49.012Z,18.15
2018-06-03T14:04:21.310Z,23.05
2018-06-03T14:06:53.489Z,18.73
2018-06-03T14:09:25.845Z,18.55
2018-06-03T14:11:57.910Z,20.05
2018-06-03T14:14:30.608Z,18.80
2018-06-03T14:17:02.362Z,15.63
2018-06-03T14:19:34.306Z,17.32
2018-06-03T14:22:06.464Z,17.57
2018-06-03T14:24:38.991Z,18.73
2018-06-03T14:27:11.164Z,18.10
2018-06-03T14:29:43.017Z,15.40
2018-06-03T14:32:14.884Z,14.38
2018-06-03T14:34:46.924Z,14.23
2018-06-03T14:37:18.963Z,14.83
2018-06-03T14:39:51.234Z,13.10
2018-06-03T14:42:23.249Z,12.95
2018-06-03T14:44:55.360Z,12.28
2018-06-03T14:47:27.501Z,13.65
2018-06-03T14:49:59.620Z,12.37
2018-06-03T14:52:31.682Z,13.25
2018-06-03T14:55:03.830Z,12.50
2018-06-03T14:57:35.906Z,15.08
2018-06-03T15:00:08.545Z,15.05
2018-06-03T15:02:40.803Z,14.78
2018-06-03T15:05:12.871Z,15.28
2018-06-03T15:07:45.285Z,14.85
2018-06-03T15:10:17.297Z,14.00
2018-06-03T15:12:49.488Z,14.50
2018-06-03T15:15:21.626Z,14.98
2018-06-03T15:17:54.026Z,15.65
2018-06-03T15:20:26.102Z,17.73
2018-06-03T15:22:58.493Z,16.12
2018-06-03T15:25:30.501Z,16.00
2018-06-03T15:28:02.649Z,15.75
2018-06-03T15:30:35.656Z,14.68
2018-06-03T15:33:07.868Z,11.97
2018-06-03T15:35:40.816Z,11.88
2018-06-03T15:38:12.614Z,10.20
2018-06-03T15:40:44.713Z,9.53
2018-06-03T15:43:17.781Z,9.98
2018-06-03T15:45:49.972Z,9.68
2018-06-03T15:48:22.259Z,9.35
2018-06-03T15:50:54.311Z,9.70
2018-06-03T15:53:26.486Z,9.80
2018-06-03T15:55:58.735Z,9.90
2018-06-03T15:58:30.328Z,9.27
2018-06-03T16:01:02.591Z,8.80
2018-06-03T16:03:34.369Z,9.08
2018-06-03T16:06:06.505Z,8.90
2018-06-03T16:08:38.833Z,9.70
2018-06-03T16:11:10.853Z,8.65
2018-06-03T16:13:43.439Z,8.65
2018-06-03T16:16:14.598Z,8.90
2018-06-03T16:18:46.137Z,8.63
2018-06-03T16:21:17.618Z,8.30
2018-06-03T16:23:48.896Z,9.23
2018-06-03T16:26:20.612Z,9.07
2018-06-03T16:28:53.369Z,8.73
2018-06-03T16:31:25.127Z,8.63
2018-06-03T16:33:56.805Z,8.70
2018-06-03T16:36:28.297Z,8.87
2018-06-03T16:39:00.032Z,8.03
2018-06-03T16:41:31.543Z,8.70
2018-06-03T16:44:04.585Z,8.13
2018-06-03T16:46:36.090Z,8.40
2018-06-03T16:49:09.886Z,8.30
2018-06-03T16:51:41.555Z,8.17
2018-06-03T16:54:13.467Z,7.63
2018-06-03T16:56:45.144Z,7.13
2018-06-03T16:59:16.895Z,7.90
2018-06-03T17:01:48.472Z,7.93
2018-06-03T17:04:20.096Z,8.03
2018-06-03T17:06:51.909Z,7.60
2018-06-03T17:09:24.575Z,8.57
2018-06-03T17:11:56.535Z,7.97
2018-06-03T17:14:29.069Z,7.03
2018-06-03T17:17:00.919Z,7.50
2018-06-03T17:19:32.504Z,8.30
2018-06-03T17:22:04.375Z,8.80
2018-06-03T17:24:36.051Z,8.33
2018-06-03T17:27:07.972Z,7.43
2018-06-03T17:29:39.615Z,8.50
2018-06-03T17:32:11.234Z,8.30
2018-06-03T17:34:43.761Z,6.57
2018-06-03T17:37:15.386Z,8.57
2018-06-03T17:39:46.924Z,8.00
2018-06-03T17:42:18.522Z,8.43
2018-06-03T17:44:50.052Z,8.60
2018-06-03T17:47:21.769Z,7.60
2018-06-03T17:49:53.256Z,7.50
2018-06-03T17:52:25.768Z,7.03
2018-06-03T17:54:56.957Z,7.83
2018-06-03T17:57:28.551Z,7.20
2018-06-03T18:00:00.114Z,7.97
2018-06-03T18:02:32.683Z,7.43
2018-06-03T18:05:03.988Z,7.40
2018-06-03T18:07:35.371Z,7.40
2018-06-03T18:10:06.594Z,7.10
2018-06-03T18:12:38.069Z,7.70
2018-06-03T18:15:10.105Z,6.80
2018-06-03T18:17:41.890Z,7.40
2018-06-03T18:20:13.419Z,7.00
2018-06-03T18:22:45.071Z,7.17
2018-06-03T18:25:17.708Z,7.00
2018-06-03T18:27:49.357Z,7.13
2018-06-03T18:30:21.121Z,6.63
2018-06-03T18:32:52.785Z,7.20
2018-06-03T18:35:24.365Z,6.27
2018-06-03T18:37:55.989Z,7.20
2018-06-03T18:40:27.717Z,6.93
2018-06-03T18:42:59.531Z,6.53
2018-06-03T18:45:31.238Z,6.17
2018-06-03T18:48:02.848Z,6.73
2018-06-03T18:50:35.160Z,5.43
2018-06-03T18:53:07.406Z,6.00
2018-06-03T18:55:39.108Z,5.10
2018-06-03T18:58:10.526Z,5.57
2018-06-03T19:00:43.414Z,5.50
2018-06-03T19:03:15.163Z,5.17
2018-06-03T19:05:46.801Z,5.90
2018-06-03T19:08:18.375Z,6.47
2018-06-03T19:10:50.157Z,6.83
2018-06-03T19:13:21.781Z,6.63
2018-06-03T19:15:53.277Z,6.50
2018-06-03T19:18:25.238Z,6.00
2018-06-03T19:20:57.029Z,6.43
2018-06-03T19:23:28.606Z,6.73
2018-06-03T19:26:00.677Z,5.67
2018-06-03T19:28:32.327Z,5.37
2018-06-03T19:31:04.016Z,5.37
2018-06-03T19:33:35.537Z,5.30
2018-06-03T19:36:07.461Z,5.77
2018-06-03T19:38:39.031Z,7.10
2018-06-03T19:41:10.571Z,7.80
2018-06-03T19:43:42.157Z,8.07
2018-06-03T19:46:13.845Z,7.40
2018-06-03T19:48:45.739Z,7.47
2018-06-03T19:51:17.367Z,8.10
2018-06-03T19:53:49.012Z,6.97
2018-06-03T19:56:20.747Z,7.77
2018-06-03T19:58:52.309Z,8.83
2018-06-03T20:01:23.922Z,8.17
2018-06-03T20:03:55.650Z,8.27
2018-06-03T20:06:27.286Z,8.00
2018-06-03T20:08:59.083Z,7.70
2018-06-03T20:11:30.639Z,9.93
2018-06-03T20:14:02.288Z,8.70
2018-06-03T20:16:33.868Z,8.60
2018-06-03T20:19:05.492Z,8.00
2018-06-03T20:21:36.888Z,8.00
2018-06-03T20:24:08.701Z,8.33
2018-06-03T20:26:42.317Z,8.03
2018-06-03T20:29:15.959Z,7.80
2018-06-03T20:31:47.502Z,7.93
2018-06-03T20:34:18.955Z,7.67
2018-06-03T20:36:50.499Z,8.83
2018-06-03T20:39:22.089Z,8.03
2018-06-03T20:41:53.714Z,7.33
2018-06-03T20:44:26.734Z,8.77
2018-06-03T20:46:58.453Z,7.77
2018-06-03T20:49:30.136Z,7.67
2018-06-03T20:52:01.606Z,7.97
2018-06-03T20:54:33.598Z,7.80
2018-06-03T20:57:05.237Z,7.40
2018-06-03T20:59:36.846Z,6.93
2018-06-03T21:02:08.591Z,7.60
2018-06-03T21:04:40.130Z,8.47
2018-06-03T21:07:11.814Z,7.90
2018-06-03T21:09:42.996Z,7.87
2018-06-03T21:12:14.359Z,7.97
2018-06-03T21:14:45.839Z,8.63
2018-06-03T21:17:17.499Z,7.33
2018-06-03T21:19:49.021Z,7.67
2018-06-03T21:22:20.634Z,7.57
2018-06-03T21:24:52.325Z,7.77
2018-06-03T21:27:23.879Z,8.33
2018-06-03T21:29:55.720Z,8.00
2018-06-03T21:32:26.910Z,8.77
2018-06-03T21:34:58.337Z,7.20
2018-06-03T21:37:30.140Z,7.13
2018-06-03T21:40:01.957Z,8.37
2018-06-03T21:42:33.669Z,7.60
2018-06-03T21:45:05.425Z,7.80
2018-06-03T21:47:36.939Z,7.07
2018-06-03T21:50:09.917Z,7.27
2018-06-03T21:52:41.523Z,7.33
2018-06-03T21:55:13.423Z,8.10
2018-06-03T21:57:45.134Z,7.63
2018-06-03T22:00:16.827Z,8.67
2018-06-03T22:02:48.410Z,7.73
2018-06-03T22:05:20.458Z,7.50
2018-06-03T22:07:52.246Z,8.40
2018-06-03T22:10:23.978Z,7.53
2018-06-03T22:12:55.610Z,7.73
2018-06-03T22:15:27.174Z,7.17
2018-06-03T22:17:58.728Z,8.23
2018-06-03T22:20:30.342Z,7.90
2018-06-03T22:23:02.051Z,8.03
2018-06-03T22:25:33.672Z,10.20
2018-06-03T22:28:05.416Z,8.07
2018-06-03T22:30:37.019Z,7.30
2018-06-03T22:33:08.250Z,8.93
2018-06-03T22:35:39.550Z,7.53
2018-06-03T22:38:11.050Z,8.53
2018-06-03T22:40:42.577Z,10.60
2018-06-03T22:43:14.266Z,8.37
2018-06-03T22:45:45.814Z,8.60
2018-06-03T22:48:17.105Z,7.90
2018-06-03T22:50:48.470Z,9.23
2018-06-03T22:53:19.926Z,9.23
2018-06-03T22:55:51.619Z,8.77
2018-06-03T22:58:23.119Z,9.03
2018-06-03T23:00:54.681Z,11.13
2018-06-03T23:03:26.194Z,10.37
2018-06-03T23:05:58.137Z,10.67
2018-06-03T23:08:29.691Z,9.73
2018-06-03T23:11:01.418Z,9.57
2018-06-03T23:13:33.167Z,9.40
2018-06-03T23:16:04.782Z,8.93
2018-06-03T23:18:36.337Z,10.63
2018-06-03T23:21:08.794Z,10.83
2018-06-03T23:23:40.380Z,10.37
2018-06-03T23:26:12.105Z,10.60
2018-06-03T23:28:43.774Z,9.80
2018-06-03T23:31:15.384Z,9.87
2018-06-03T23:33:46.908Z,10.03
2018-06-03T23:36:18.414Z,9.60
2018-06-03T23:38:49.933Z,11.30
2018-06-03T23:41:21.649Z,9.23
2018-06-03T23:43:53.887Z,9.60
2018-06-03T23:46:25.381Z,10.40
2018-06-03T23:48:56.971Z,10.40
2018-06-03T23:51:28.477Z,10.47
2018-06-03T23:53:59.649Z,11.57
2018-06-03T23:56:31.126Z,9.43
2018-06-03T23:59:02.776Z,10.70
